Decoded Metar for SKCL (CALI in COLOMBIA) (IATA:CLO) | Meteo·Mobile Aviation Weather
aviador You're here:

SKCL Decoded Metar

CALI in COLOMBIA
Report Time2019-07-23 02:00:00
UTC Time2019-07-23 02:36:34
Flight Rules vfr VFR
Wind340° at 12 kt
W.Decomp.*RWY 01: 10.8 kt HW 5.3 kt LCW
Visibility9999 m
Phenomena:Vicinity showers
Clouds:Few 020 Hf
Broken 100 Hf
Expected CloudBase > 2,400 ft AGL from Temp-Dew spread
Ceiling10,000 ft
Temp24°C (ISA +15)
Dew Point18°C (69% RH)
AAT22.5°C
QNH1016 hPa
Density Alt5,131 ft
Elevation3,179 ft
Report Wrong Elevation
Raw Report
METAR SKCL 230200Z 34012KT 9999 VCSH FEW020 BKN100 24/18 A3000 RMK
VCSH N=

Extra information for SKCL:More info

Metar Taf Metar & Taf Last 4 Metars F.Rules Stats Wind Profile Meteogram Temp Stats Airport Information Weather charts Add Link Nearby VenuesMetar ALERT Operation Metar Decoded Social comments